createdAt,value
2022-09-20T00:00:48.591Z,100.00
2022-09-20T00:03:16.915Z,100.00
2022-09-20T00:05:45.897Z,100.00
2022-09-20T00:08:17.393Z,100.00
2022-09-20T00:10:44.053Z,100.00
2022-09-20T00:13:13.632Z,100.00
2022-09-20T00:15:45.803Z,100.00
2022-09-20T00:18:13.038Z,100.00
2022-09-20T00:20:47.748Z,100.00
2022-09-20T00:23:16.582Z,100.00
2022-09-20T00:25:43.604Z,100.00
2022-09-20T00:28:11.383Z,100.00
2022-09-20T00:30:39.031Z,100.00
2022-09-20T00:33:06.007Z,100.00
2022-09-20T00:35:33.207Z,100.00
2022-09-20T00:37:59.841Z,100.00
2022-09-20T00:40:29.148Z,100.00
2022-09-20T00:42:55.952Z,100.00
2022-09-20T00:45:28.468Z,100.00
2022-09-20T00:48:12.403Z,100.00
2022-09-20T00:50:53.378Z,100.00
2022-09-20T00:53:26.394Z,100.00
2022-09-20T00:56:01.563Z,100.00
2022-09-20T00:58:32.256Z,100.00
2022-09-20T01:00:59.893Z,100.00
2022-09-20T01:03:31.502Z,100.00
2022-09-20T01:06:02.036Z,100.00
2022-09-20T01:08:29.029Z,100.00
2022-09-20T01:10:55.824Z,100.00
2022-09-20T01:13:22.644Z,100.00
2022-09-20T01:15:50.572Z,100.00
2022-09-20T01:18:20.216Z,100.00
2022-09-20T01:20:48.511Z,100.00
2022-09-20T01:23:17.705Z,100.00
2022-09-20T01:26:03.158Z,100.00
2022-09-20T01:28:30.329Z,100.00
2022-09-20T01:31:15.268Z,100.00
2022-09-20T01:34:00.945Z,100.00
2022-09-20T01:36:48.515Z,100.00
2022-09-20T01:39:40.483Z,100.00
2022-09-20T01:42:10.959Z,100.00
2022-09-20T01:44:55.665Z,100.00
2022-09-20T01:47:34.155Z,100.00
2022-09-20T01:50:06.628Z,100.00
2022-09-20T01:52:42.313Z,100.00
2022-09-20T01:55:46.404Z,100.00
2022-09-20T01:58:44.106Z,100.00
2022-09-20T02:01:41.319Z,100.00
2022-09-20T02:04:26.662Z,100.00
2022-09-20T02:07:17.350Z,100.00
2022-09-20T02:10:05.429Z,100.00
2022-09-20T02:12:45.591Z,100.00
2022-09-20T02:15:46.201Z,100.00
2022-09-20T02:18:46.978Z,100.00
2022-09-20T02:21:38.047Z,100.00
2022-09-20T02:24:16.666Z,100.00
2022-09-20T02:27:14.172Z,100.00
2022-09-20T02:30:05.676Z,100.00
2022-09-20T02:32:51.897Z,100.00
2022-09-20T02:36:00.036Z,100.00
2022-09-20T02:39:02.177Z,100.00
2022-09-20T02:41:40.746Z,100.00
2022-09-20T02:44:30.019Z,100.00
2022-09-20T02:47:32.811Z,100.00
2022-09-20T02:50:02.033Z,100.00
2022-09-20T02:52:46.640Z,100.00
2022-09-20T02:55:41.326Z,100.00
2022-09-20T02:58:26.990Z,100.00
2022-09-20T03:01:24.412Z,100.00
2022-09-20T03:04:14.640Z,100.00
2022-09-20T03:06:59.021Z,100.00
2022-09-20T03:09:51.765Z,100.00
2022-09-20T03:12:44.931Z,100.00
2022-09-20T03:15:29.843Z,100.00
2022-09-20T03:18:52.204Z,100.00
2022-09-20T03:21:27.870Z,100.00
2022-09-20T03:24:10.805Z,100.00
2022-09-20T03:27:05.895Z,100.00
2022-09-20T03:29:59.527Z,100.00
2022-09-20T03:32:52.714Z,100.00
2022-09-20T03:35:38.012Z,100.00
2022-09-20T03:38:10.282Z,100.00
2022-09-20T03:40:52.316Z,100.00
2022-09-20T03:43:55.747Z,100.00
2022-09-20T03:46:29.730Z,100.00
2022-09-20T03:49:33.364Z,100.00
2022-09-20T03:52:20.645Z,100.00
2022-09-20T03:55:08.669Z,100.00
2022-09-20T03:57:39.102Z,100.00
2022-09-20T04:00:14.985Z,100.00
2022-09-20T04:02:41.727Z,100.00
2022-09-20T04:05:18.362Z,100.00
2022-09-20T04:08:19.965Z,100.00
2022-09-20T04:11:08.283Z,100.00
2022-09-20T04:13:40.992Z,100.00
2022-09-20T04:16:34.815Z,100.00
2022-09-20T04:19:18.494Z,100.00
2022-09-20T04:21:57.731Z,100.00
2022-09-20T04:24:30.563Z,100.00
2022-09-20T04:27:03.857Z,100.00
2022-09-20T04:29:53.150Z,100.00
2022-09-20T04:32:28.859Z,100.00
2022-09-20T04:35:48.120Z,100.00
2022-09-20T04:38:19.508Z,100.00
2022-09-20T04:41:12.078Z,100.00
2022-09-20T04:44:17.507Z,100.00
2022-09-20T04:47:21.673Z,100.00
2022-09-20T04:50:16.272Z,100.00
2022-09-20T04:53:21.758Z,100.00
2022-09-20T04:56:02.026Z,100.00
2022-09-20T04:58:47.271Z,100.00
2022-09-20T05:01:19.845Z,100.00
2022-09-20T05:04:23.974Z,100.00
2022-09-20T05:07:11.988Z,100.00
2022-09-20T05:10:13.707Z,100.00
2022-09-20T05:13:05.394Z,100.00
2022-09-20T05:16:04.646Z,100.00
2022-09-20T05:19:02.315Z,100.00
2022-09-20T05:21:47.923Z,100.00
2022-09-20T05:24:33.013Z,100.00
2022-09-20T05:27:34.001Z,100.00
2022-09-20T05:30:26.766Z,100.00
2022-09-20T05:33:20.618Z,100.00
2022-09-20T05:36:34.535Z,100.00
2022-09-20T05:39:34.335Z,100.00
2022-09-20T05:42:09.954Z,100.00
2022-09-20T05:45:00.663Z,100.00
2022-09-20T05:47:41.044Z,100.00
2022-09-20T05:50:49.595Z,100.00
2022-09-20T05:53:34.913Z,100.00
2022-09-20T05:56:46.907Z,100.00
2022-09-20T05:59:28.839Z,100.00
2022-09-20T06:02:10.739Z,100.00
2022-09-20T06:04:52.390Z,100.00
2022-09-20T06:07:39.455Z,100.00
2022-09-20T06:10:24.769Z,100.00
2022-09-20T06:13:22.242Z,100.00
2022-09-20T06:15:59.285Z,100.00
2022-09-20T06:18:40.648Z,100.00
2022-09-20T06:21:36.079Z,100.00
2022-09-20T06:24:19.933Z,100.00
2022-09-20T06:26:49.647Z,100.00
2022-09-20T06:29:20.152Z,100.00
2022-09-20T06:31:46.858Z,100.00
2022-09-20T06:34:15.674Z,100.00
2022-09-20T06:37:13.249Z,100.00
2022-09-20T06:40:02.451Z,100.00
2022-09-20T06:42:29.766Z,100.00
2022-09-20T06:44:56.590Z,100.00
2022-09-20T06:47:23.422Z,100.00
2022-09-20T06:49:50.547Z,100.00
2022-09-20T06:52:19.131Z,100.00
2022-09-20T06:54:48.338Z,100.00
2022-09-20T06:57:18.406Z,100.00
2022-09-20T06:59:45.814Z,100.00
2022-09-20T07:02:12.474Z,100.00
2022-09-20T07:04:40.149Z,100.00
2022-09-20T07:07:09.768Z,100.00
2022-09-20T07:09:36.591Z,100.00
2022-09-20T07:12:03.605Z,100.00
2022-09-20T07:14:30.238Z,100.00
2022-09-20T07:16:56.901Z,100.00
2022-09-20T07:19:23.559Z,100.00
2022-09-20T07:21:50.166Z,100.00
2022-09-20T07:24:16.881Z,100.00
2022-09-20T07:26:57.549Z,100.00
2022-09-20T07:29:24.514Z,100.00
2022-09-20T07:31:51.366Z,100.00
2022-09-20T07:34:20.842Z,100.00
2022-09-20T07:36:48.413Z,100.00
2022-09-20T07:39:16.569Z,100.00
2022-09-20T07:41:46.886Z,100.00
2022-09-20T07:44:24.475Z,100.00
2022-09-20T07:46:52.817Z,100.00
2022-09-20T07:49:20.219Z,100.00
2022-09-20T07:51:46.948Z,100.00
2022-09-20T07:54:14.086Z,100.00
2022-09-20T07:56:41.327Z,100.00
2022-09-20T07:59:08.190Z,100.00
2022-09-20T08:01:35.133Z,100.00
2022-09-20T08:04:02.160Z,100.00
2022-09-20T08:06:28.850Z,100.00
2022-09-20T08:08:55.741Z,100.00
2022-09-20T08:11:29.628Z,100.00
2022-09-20T08:14:08.356Z,100.00
2022-09-20T08:16:45.211Z,100.00
2022-09-20T08:19:17.756Z,100.00
2022-09-20T08:21:44.896Z,100.00
2022-09-20T08:24:12.229Z,100.00
2022-09-20T08:26:39.275Z,100.00
2022-09-20T08:29:06.673Z,100.00
2022-09-20T08:31:36.855Z,100.00
2022-09-20T08:34:06.908Z,100.00
2022-09-20T08:36:36.901Z,100.00
2022-09-20T08:42:02.646Z,100.00
2022-09-20T08:44:36.779Z,100.00
2022-09-20T08:47:25.272Z,100.00
2022-09-20T08:49:57.784Z,100.00
2022-09-20T08:52:37.008Z,100.00
2022-09-20T08:55:23.014Z,100.00
2022-09-20T08:57:55.624Z,100.00
2022-09-20T09:00:26.149Z,100.00
2022-09-20T09:02:56.476Z,100.00
2022-09-20T09:05:29.054Z,100.00
2022-09-20T09:07:55.758Z,100.00
2022-09-20T09:10:22.675Z,100.00
2022-09-20T09:12:50.754Z,100.00
2022-09-20T09:15:32.824Z,100.00
2022-09-20T09:17:59.788Z,100.00
2022-09-20T09:20:26.856Z,100.00
2022-09-20T09:23:02.776Z,100.00
2022-09-20T09:25:38.039Z,100.00
2022-09-20T09:28:14.233Z,100.00
2022-09-20T09:30:44.138Z,100.00
2022-09-20T09:33:24.189Z,100.00
2022-09-20T09:36:10.765Z,100.00
2022-09-20T09:38:40.265Z,100.00
2022-09-20T09:41:29.917Z,100.00
2022-09-20T09:44:10.234Z,100.00
2022-09-20T09:46:42.195Z,100.00
2022-09-20T09:49:21.050Z,100.00
2022-09-20T09:52:01.820Z,100.00
2022-09-20T09:54:36.507Z,100.00
2022-09-20T09:57:22.234Z,100.00
2022-09-20T09:59:58.024Z,100.00
2022-09-20T10:02:58.654Z,100.00
2022-09-20T10:05:33.495Z,100.00
2022-09-20T10:08:18.437Z,100.00
2022-09-20T10:11:07.292Z,100.00
2022-09-20T10:13:40.434Z,98.33
2022-09-20T10:16:29.373Z,95.75
2022-09-20T10:19:37.249Z,99.25
2022-09-20T10:23:24.152Z,96.73
2022-09-20T10:25:50.837Z,99.18
2022-09-20T10:28:48.484Z,100.00
2022-09-20T10:31:39.354Z,96.21
2022-09-20T10:34:36.807Z,96.17
2022-09-20T10:37:11.951Z,95.16
2022-09-20T10:39:41.321Z,90.93
2022-09-20T10:42:37.039Z,91.30
2022-09-20T10:46:08.334Z,82.29
2022-09-20T10:48:52.485Z,76.30
2022-09-20T10:51:25.891Z,68.79
2022-09-20T10:54:10.277Z,74.09
2022-09-20T10:56:40.629Z,67.44
2022-09-20T10:59:42.489Z,63.96
2022-09-20T11:02:22.009Z,64.59
2022-09-20T11:04:54.571Z,60.21
2022-09-20T11:07:48.840Z,58.71
2022-09-20T11:10:36.199Z,58.97
2022-09-20T11:13:11.017Z,59.53
2022-09-20T11:15:51.230Z,60.44
2022-09-20T11:18:26.537Z,57.89
2022-09-20T11:21:01.195Z,55.86
2022-09-20T11:23:38.070Z,53.98
2022-09-20T11:26:13.207Z,53.32
2022-09-20T11:28:55.217Z,53.89
2022-09-20T11:31:36.392Z,52.29
2022-09-20T11:34:21.243Z,53.27
2022-09-20T11:36:58.934Z,52.51
2022-09-20T11:39:42.604Z,49.97
2022-09-20T11:42:16.494Z,48.75
2022-09-20T11:44:43.316Z,48.91
2022-09-20T11:47:53.260Z,47.97
2022-09-20T11:50:45.387Z,50.04
2022-09-20T11:53:39.809Z,54.82
2022-09-20T11:56:28.519Z,59.65
2022-09-20T11:58:59.823Z,59.24
2022-09-20T12:01:32.078Z,57.68
2022-09-20T12:04:36.420Z,54.03
2022-09-20T12:07:18.652Z,53.58
2022-09-20T12:09:54.426Z,52.36
2022-09-20T12:12:36.539Z,51.74
2022-09-20T12:15:08.055Z,55.08
2022-09-20T12:17:46.833Z,54.51
2022-09-20T12:20:34.908Z,55.04
2022-09-20T12:23:40.304Z,56.37
2022-09-20T12:26:08.515Z,57.60
2022-09-20T12:28:39.685Z,63.13
2022-09-20T12:31:32.146Z,64.08
2022-09-20T12:34:10.806Z,61.03
2022-09-20T12:36:40.492Z,55.51
2022-09-20T12:39:17.602Z,54.92
2022-09-20T12:41:51.914Z,56.93
2022-09-20T12:44:35.519Z,59.21
2022-09-20T12:47:16.114Z,64.73
2022-09-20T12:50:04.458Z,64.36
2022-09-20T12:52:55.683Z,67.01
2022-09-20T12:55:46.080Z,68.60
2022-09-20T12:58:16.614Z,68.89
2022-09-20T13:00:47.751Z,66.81
2022-09-20T13:03:29.720Z,67.99
2022-09-20T13:06:06.066Z,69.43
2022-09-20T13:09:10.598Z,69.72
2022-09-20T13:11:57.051Z,68.27
2022-09-20T13:14:32.752Z,65.74
2022-09-20T13:17:37.298Z,65.64
2022-09-20T13:20:04.757Z,61.91
2022-09-20T13:22:43.533Z,62.84
2022-09-20T13:25:15.873Z,61.64
2022-09-20T13:28:10.458Z,63.11
2022-09-20T13:30:37.492Z,66.97
2022-09-20T13:33:24.828Z,64.99
2022-09-20T13:35:54.724Z,67.22
2022-09-20T13:38:25.090Z,72.99
2022-09-20T13:40:54.119Z,91.48
2022-09-20T13:43:31.424Z,100.00
2022-09-20T13:46:08.670Z,100.00
2022-09-20T13:48:36.149Z,100.00
2022-09-20T13:51:03.386Z,100.00
2022-09-20T13:53:42.100Z,100.00
2022-09-20T13:56:19.890Z,100.00
2022-09-20T13:58:46.703Z,100.00
2022-09-20T14:01:25.164Z,100.00
2022-09-20T14:03:53.519Z,100.00
2022-09-20T14:06:28.283Z,100.00
2022-09-20T14:08:57.430Z,100.00
2022-09-20T14:11:28.047Z,100.00
2022-09-20T14:13:58.087Z,100.00
2022-09-20T14:16:31.133Z,100.00
2022-09-20T14:18:59.249Z,100.00
2022-09-20T14:21:28.551Z,100.00
2022-09-20T14:24:06.491Z,100.00
2022-09-20T14:26:38.776Z,100.00
2022-09-20T14:29:50.568Z,100.00
2022-09-20T14:32:17.294Z,100.00
2022-09-20T14:35:00.929Z,100.00
2022-09-20T14:37:44.850Z,100.00
2022-09-20T14:40:25.437Z,100.00
2022-09-20T14:42:56.325Z,100.00
2022-09-20T14:45:44.511Z,100.00
2022-09-20T14:48:12.261Z,100.00
2022-09-20T14:50:44.463Z,100.00
2022-09-20T14:53:11.044Z,100.00
2022-09-20T14:56:08.838Z,100.00
2022-09-20T14:59:01.424Z,100.00
2022-09-20T15:01:28.472Z,100.00
2022-09-20T15:03:57.336Z,100.00
2022-09-20T15:06:25.134Z,100.00
2022-09-20T15:08:52.385Z,100.00
2022-09-20T15:11:23.524Z,100.00
2022-09-20T15:13:50.488Z,100.00
2022-09-20T15:16:20.216Z,100.00
2022-09-20T15:18:46.947Z,100.00
2022-09-20T15:21:13.863Z,100.00
2022-09-20T15:23:41.370Z,100.00
2022-09-20T15:26:10.731Z,100.00
2022-09-20T15:28:37.610Z,96.33
2022-09-20T15:31:04.706Z,94.92
2022-09-20T15:33:32.625Z,84.84
2022-09-20T15:36:02.022Z,80.25
2022-09-20T15:38:28.873Z,71.29
2022-09-20T15:40:55.680Z,70.65
2022-09-20T15:43:26.339Z,68.92
2022-09-20T15:46:03.167Z,71.79
2022-09-20T15:48:30.818Z,74.93
2022-09-20T15:51:05.916Z,80.22
2022-09-20T15:53:55.451Z,92.40
2022-09-20T15:56:25.035Z,96.14
2022-09-20T15:59:00.967Z,98.00
2022-09-20T16:01:33.122Z,99.68
2022-09-20T16:04:00.302Z,100.00
2022-09-20T16:06:27.010Z,100.00
2022-09-20T16:09:03.781Z,98.53
2022-09-20T16:11:31.050Z,96.43
2022-09-20T16:13:59.483Z,100.00
2022-09-20T16:16:28.249Z,100.00
2022-09-20T16:19:14.280Z,96.59
2022-09-20T16:21:42.149Z,93.33
2022-09-20T16:24:10.861Z,94.82
2022-09-20T16:26:38.001Z,95.81
2022-09-20T16:29:06.092Z,97.34
2022-09-20T16:31:43.738Z,100.00
2022-09-20T16:34:31.338Z,100.00
2022-09-20T16:37:01.219Z,100.00
2022-09-20T16:39:30.473Z,100.00
2022-09-20T16:42:04.522Z,100.00
2022-09-20T16:44:33.030Z,100.00
2022-09-20T16:46:59.890Z,100.00
2022-09-20T16:49:28.076Z,100.00
2022-09-20T16:51:55.214Z,100.00
2022-09-20T16:54:22.156Z,100.00
2022-09-20T16:56:50.631Z,100.00
2022-09-20T16:59:24.187Z,100.00
2022-09-20T17:01:51.539Z,100.00
2022-09-20T17:04:21.114Z,100.00
2022-09-20T17:06:49.470Z,100.00
2022-09-20T17:09:17.124Z,100.00
2022-09-20T17:11:50.173Z,100.00
2022-09-20T17:14:19.189Z,100.00
2022-09-20T17:16:49.497Z,100.00
2022-09-20T17:19:21.139Z,100.00
2022-09-20T17:21:50.674Z,100.00
2022-09-20T17:24:20.169Z,100.00
2022-09-20T17:26:47.511Z,100.00
2022-09-20T17:29:17.116Z,100.00
2022-09-20T17:31:51.533Z,100.00
2022-09-20T17:34:22.028Z,100.00
2022-09-20T17:36:50.492Z,100.00
2022-09-20T17:39:18.515Z,100.00
2022-09-20T17:41:49.327Z,100.00
2022-09-20T17:44:16.854Z,100.00
2022-09-20T17:46:49.983Z,100.00
2022-09-20T17:49:21.814Z,100.00
2022-09-20T17:51:53.974Z,100.00
2022-09-20T17:54:22.045Z,100.00
2022-09-20T17:56:51.975Z,100.00
2022-09-20T17:59:20.181Z,100.00
2022-09-20T18:01:49.760Z,100.00
2022-09-20T18:04:16.529Z,100.00
2022-09-20T18:06:49.570Z,100.00
2022-09-20T18:09:18.691Z,100.00
2022-09-20T18:11:50.120Z,100.00
2022-09-20T18:14:23.257Z,100.00
2022-09-20T18:16:56.038Z,100.00
2022-09-20T18:19:22.919Z,100.00
2022-09-20T18:21:50.260Z,100.00
2022-09-20T18:24:17.179Z,100.00
2022-09-20T18:26:44.612Z,100.00
2022-09-20T18:29:18.003Z,100.00
2022-09-20T18:31:48.764Z,100.00
2022-09-20T18:34:18.492Z,100.00
2022-09-20T18:36:55.015Z,100.00
2022-09-20T18:39:28.831Z,100.00
2022-09-20T18:41:56.426Z,100.00
2022-09-20T18:44:23.841Z,100.00
2022-09-20T18:46:55.048Z,100.00
2022-09-20T18:49:22.481Z,100.00
2022-09-20T18:51:49.824Z,100.00
2022-09-20T18:54:17.419Z,100.00
2022-09-20T18:56:46.375Z,100.00
2022-09-20T18:59:18.252Z,100.00
2022-09-20T19:01:51.049Z,100.00
2022-09-20T19:04:52.038Z,100.00
2022-09-20T19:07:28.088Z,100.00
2022-09-20T19:10:06.813Z,100.00
2022-09-20T19:12:52.222Z,100.00
2022-09-20T19:15:58.134Z,100.00
2022-09-20T19:19:01.672Z,100.00
2022-09-20T19:21:45.131Z,100.00
2022-09-20T19:24:33.646Z,100.00
2022-09-20T19:27:00.693Z,100.00
2022-09-20T19:29:28.722Z,100.00
2022-09-20T19:31:59.001Z,100.00
2022-09-20T19:34:31.161Z,100.00
2022-09-20T19:37:18.752Z,100.00
2022-09-20T19:40:16.547Z,100.00
2022-09-20T19:43:23.678Z,100.00
2022-09-20T19:45:55.910Z,100.00
2022-09-20T19:48:48.690Z,100.00
2022-09-20T19:51:17.192Z,100.00
2022-09-20T19:53:44.225Z,100.00
2022-09-20T19:56:25.896Z,100.00
2022-09-20T19:58:56.463Z,100.00
2022-09-20T20:01:25.836Z,100.00
2022-09-20T20:03:53.884Z,100.00
2022-09-20T20:06:26.082Z,100.00
2022-09-20T20:08:59.004Z,100.00
2022-09-20T20:11:50.403Z,100.00
2022-09-20T20:14:28.827Z,100.00
2022-09-20T20:17:01.552Z,100.00
2022-09-20T20:19:47.114Z,100.00
2022-09-20T20:22:34.672Z,100.00
2022-09-20T20:25:01.537Z,100.00
2022-09-20T20:27:28.536Z,100.00
2022-09-20T20:29:56.652Z,100.00
2022-09-20T20:32:24.004Z,100.00
2022-09-20T20:34:50.585Z,100.00
2022-09-20T20:37:18.208Z,100.00
2022-09-20T20:39:44.865Z,100.00
2022-09-20T20:42:12.968Z,100.00
2022-09-20T20:44:40.174Z,100.00
2022-09-20T20:47:07.360Z,100.00
2022-09-20T20:49:34.723Z,100.00
2022-09-20T20:52:04.876Z,100.00
2022-09-20T20:54:32.517Z,100.00
2022-09-20T20:56:59.716Z,100.00
2022-09-20T20:59:26.828Z,100.00
2022-09-20T21:01:53.540Z,100.00
2022-09-20T21:04:21.791Z,100.00
2022-09-20T21:06:50.245Z,100.00
2022-09-20T21:09:16.894Z,100.00
2022-09-20T21:11:44.370Z,100.00
2022-09-20T21:14:13.055Z,100.00
2022-09-20T21:16:45.583Z,100.00
2022-09-20T21:19:15.737Z,100.00
2022-09-20T21:21:44.515Z,100.00
2022-09-20T21:24:15.356Z,100.00
2022-09-20T21:26:42.584Z,100.00
2022-09-20T21:29:15.257Z,100.00
2022-09-20T21:31:43.858Z,100.00
2022-09-20T21:34:12.859Z,100.00
2022-09-20T21:36:41.631Z,100.00
2022-09-20T21:39:09.004Z,100.00
2022-09-20T21:41:37.750Z,100.00
2022-09-20T21:44:06.095Z,100.00
2022-09-20T21:46:39.248Z,100.00
2022-09-20T21:49:10.995Z,100.00
2022-09-20T21:51:39.329Z,100.00
2022-09-20T21:54:06.378Z,100.00
2022-09-20T21:56:38.349Z,100.00
2022-09-20T21:59:06.398Z,100.00
2022-09-20T22:01:39.407Z,100.00
2022-09-20T22:04:09.506Z,100.00
2022-09-20T22:06:42.136Z,100.00
2022-09-20T22:09:17.029Z,100.00
2022-09-20T22:11:46.559Z,100.00
2022-09-20T22:14:16.262Z,100.00
2022-09-20T22:16:44.817Z,100.00
2022-09-20T22:19:14.081Z,100.00
2022-09-20T22:21:45.895Z,100.00
2022-09-20T22:24:13.658Z,100.00
2022-09-20T22:26:48.479Z,100.00
2022-09-20T22:29:15.759Z,100.00
2022-09-20T22:31:47.330Z,100.00
2022-09-20T22:34:25.109Z,100.00
2022-09-20T22:36:52.505Z,100.00
2022-09-20T22:39:19.155Z,100.00
2022-09-20T22:41:48.012Z,100.00
2022-09-20T22:44:15.067Z,100.00
2022-09-20T22:46:42.872Z,100.00
2022-09-20T22:49:09.983Z,100.00
2022-09-20T22:51:37.589Z,100.00
2022-09-20T22:54:08.240Z,100.00
2022-09-20T22:56:44.017Z,100.00
2022-09-20T22:59:14.361Z,100.00
2022-09-20T23:01:43.527Z,100.00
2022-09-20T23:04:28.303Z,100.00
2022-09-20T23:06:55.220Z,100.00
2022-09-20T23:09:26.465Z,100.00
2022-09-20T23:11:53.289Z,100.00
2022-09-20T23:14:21.769Z,100.00
2022-09-20T23:16:49.043Z,100.00
2022-09-20T23:19:16.153Z,100.00
2022-09-20T23:21:43.848Z,100.00
2022-09-20T23:24:12.700Z,100.00
2022-09-20T23:26:41.523Z,100.00
2022-09-20T23:29:13.564Z,100.00
2022-09-20T23:31:45.613Z,100.00
2022-09-20T23:34:13.850Z,100.00
2022-09-20T23:36:41.072Z,100.00
2022-09-20T23:39:09.099Z,100.00
2022-09-20T23:41:36.957Z,100.00
2022-09-20T23:44:06.227Z,100.00
2022-09-20T23:46:33.476Z,100.00
2022-09-20T23:49:00.283Z,100.00
2022-09-20T23:51:28.503Z,100.00
2022-09-20T23:53:55.163Z,100.00
2022-09-20T23:56:22.619Z,100.00
2022-09-20T23:58:50.268Z,100.00
